createdAt,value
2023-03-26T00:01:26.382Z,61.40
2023-03-26T00:03:53.887Z,61.61
2023-03-26T00:06:22.736Z,61.17
2023-03-26T00:08:49.935Z,61.56
2023-03-26T00:11:17.760Z,61.37
2023-03-26T00:13:46.228Z,61.83
2023-03-26T00:16:19.701Z,61.54
2023-03-26T00:18:46.938Z,62.78
2023-03-26T00:21:15.536Z,62.43
2023-03-26T00:23:42.342Z,62.16
2023-03-26T00:26:10.668Z,61.08
2023-03-26T00:28:38.935Z,61.04
2023-03-26T00:31:06.657Z,62.19
2023-03-26T00:33:33.889Z,62.13
2023-03-26T00:36:04.391Z,63.11
2023-03-26T00:38:32.413Z,63.46
2023-03-26T00:41:01.175Z,64.50
2023-03-26T00:43:28.618Z,65.04
2023-03-26T00:45:56.121Z,65.92
2023-03-26T00:48:31.553Z,66.43
2023-03-26T00:51:05.673Z,65.07
2023-03-26T00:53:33.484Z,66.16
2023-03-26T00:56:00.559Z,65.69
2023-03-26T00:58:28.344Z,64.76
2023-03-26T01:01:05.267Z,65.10
2023-03-26T01:03:33.150Z,64.78
2023-03-26T01:06:04.153Z,64.84
2023-03-26T01:08:41.866Z,65.03
2023-03-26T01:11:16.625Z,64.70
2023-03-26T01:13:48.751Z,64.86
2023-03-26T01:16:29.936Z,64.34
2023-03-26T01:18:57.074Z,64.32
2023-03-26T01:21:28.207Z,63.99
2023-03-26T01:24:12.913Z,65.38
2023-03-26T01:27:01.181Z,65.25
2023-03-26T01:29:55.913Z,65.02
2023-03-26T01:32:33.251Z,65.25
2023-03-26T01:35:35.474Z,64.61
2023-03-26T01:38:31.876Z,62.03
2023-03-26T01:41:09.329Z,63.16
2023-03-26T01:43:48.046Z,62.47
2023-03-26T01:46:15.727Z,60.74
2023-03-26T01:48:52.166Z,61.24
2023-03-26T01:51:30.591Z,62.10
2023-03-26T01:54:01.368Z,61.38
2023-03-26T01:57:02.990Z,61.33
2023-03-26T01:59:36.859Z,64.83
2023-03-26T02:02:13.476Z,65.50
2023-03-26T02:05:00.880Z,65.25
2023-03-26T02:07:42.179Z,63.61
2023-03-26T02:10:21.166Z,62.71
2023-03-26T02:12:55.150Z,62.32
2023-03-26T02:15:22.656Z,63.23
2023-03-26T02:17:53.227Z,63.24
2023-03-26T02:20:22.790Z,62.62
2023-03-26T02:22:50.444Z,62.81
2023-03-26T02:25:18.686Z,62.77
2023-03-26T02:27:46.931Z,62.83
2023-03-26T02:30:20.962Z,62.79
2023-03-26T02:32:48.354Z,64.35
2023-03-26T02:35:15.911Z,64.28
2023-03-26T02:37:42.903Z,63.61
2023-03-26T02:40:10.990Z,63.17
2023-03-26T02:42:37.970Z,64.24
2023-03-26T02:45:07.106Z,63.93
2023-03-26T02:47:34.606Z,63.57
2023-03-26T02:50:01.359Z,62.02
2023-03-26T02:52:28.552Z,62.70
2023-03-26T02:54:56.899Z,62.69
2023-03-26T02:57:24.135Z,62.66
2023-03-26T02:59:53.706Z,63.61
2023-03-26T03:02:20.690Z,62.77
2023-03-26T03:04:48.537Z,63.05
2023-03-26T03:07:18.239Z,63.36
2023-03-26T03:09:46.377Z,64.14
2023-03-26T03:12:16.197Z,64.40
2023-03-26T03:14:43.238Z,65.59
2023-03-26T03:17:10.298Z,66.53
2023-03-26T03:19:37.505Z,67.49
2023-03-26T03:22:06.941Z,67.90
2023-03-26T03:24:34.735Z,67.39
2023-03-26T03:27:01.517Z,67.34
2023-03-26T03:29:29.378Z,68.17
2023-03-26T03:31:56.220Z,67.54
2023-03-26T03:34:23.238Z,67.99
2023-03-26T03:36:50.343Z,68.22
2023-03-26T03:39:17.029Z,67.87
2023-03-26T03:41:44.066Z,67.70
2023-03-26T03:44:10.819Z,67.11
2023-03-26T03:46:37.649Z,66.83
2023-03-26T03:49:05.486Z,66.21
2023-03-26T03:51:32.469Z,65.18
2023-03-26T03:54:00.359Z,66.80
2023-03-26T03:56:28.445Z,66.17
2023-03-26T03:58:55.115Z,66.54
2023-03-26T04:01:22.171Z,66.10
2023-03-26T04:03:49.377Z,66.32
2023-03-26T04:06:16.305Z,66.41
2023-03-26T04:08:46.205Z,67.04
2023-03-26T04:11:13.996Z,66.41
2023-03-26T04:13:41.152Z,65.81
2023-03-26T04:16:08.248Z,65.83
2023-03-26T04:18:35.462Z,65.83
2023-03-26T04:21:02.224Z,64.91
2023-03-26T04:23:28.948Z,64.37
2023-03-26T04:25:56.056Z,64.14
2023-03-26T04:28:31.290Z,65.60
2023-03-26T04:30:59.262Z,64.74
2023-03-26T04:33:29.937Z,65.53
2023-03-26T04:35:57.267Z,65.89
2023-03-26T04:38:24.601Z,66.10
2023-03-26T04:40:54.107Z,66.28
2023-03-26T04:43:21.232Z,67.09
2023-03-26T04:45:51.029Z,68.17
2023-03-26T04:48:18.176Z,69.08
2023-03-26T04:50:44.862Z,69.10
2023-03-26T04:53:15.904Z,69.79
2023-03-26T04:55:47.430Z,69.73
2023-03-26T04:58:14.881Z,70.26
2023-03-26T05:00:41.858Z,71.08
2023-03-26T05:03:13.304Z,71.17
2023-03-26T05:05:40.116Z,71.79
2023-03-26T05:08:07.235Z,72.02
2023-03-26T05:10:36.729Z,71.82
2023-03-26T05:13:03.493Z,73.00
2023-03-26T05:15:31.457Z,73.50
2023-03-26T05:18:01.151Z,74.66
2023-03-26T05:20:28.775Z,74.69
2023-03-26T05:22:55.813Z,75.32
2023-03-26T05:25:25.592Z,75.68
2023-03-26T05:27:52.824Z,76.09
2023-03-26T05:30:21.720Z,76.08
2023-03-26T05:32:51.446Z,76.68
2023-03-26T05:35:18.908Z,77.75
2023-03-26T05:37:46.188Z,77.89
2023-03-26T05:40:13.863Z,76.02
2023-03-26T05:42:40.906Z,75.00
2023-03-26T05:45:10.868Z,75.92
2023-03-26T05:47:39.500Z,74.75
2023-03-26T05:50:09.504Z,74.72
2023-03-26T05:52:36.268Z,74.76
2023-03-26T05:55:02.965Z,74.65
2023-03-26T05:57:30.732Z,75.43
2023-03-26T05:59:57.826Z,75.58
2023-03-26T06:02:24.597Z,75.66
2023-03-26T06:04:52.778Z,77.84
2023-03-26T06:07:22.594Z,78.32
2023-03-26T06:09:49.681Z,77.77
2023-03-26T06:12:16.434Z,77.71
2023-03-26T06:14:43.478Z,78.41
2023-03-26T06:17:10.466Z,78.16
2023-03-26T06:19:37.623Z,78.96
2023-03-26T06:22:04.704Z,80.05
2023-03-26T06:24:31.708Z,78.66
2023-03-26T06:26:58.809Z,78.31
2023-03-26T06:29:26.300Z,79.40
2023-03-26T06:31:53.052Z,80.06
2023-03-26T06:34:19.762Z,81.75
2023-03-26T06:36:46.951Z,81.77
2023-03-26T06:39:14.213Z,82.26
2023-03-26T06:41:41.548Z,81.97
2023-03-26T06:44:08.587Z,82.05
2023-03-26T06:46:35.342Z,81.90
2023-03-26T06:49:02.136Z,81.80
2023-03-26T06:51:28.885Z,80.92
2023-03-26T06:53:57.267Z,81.10
2023-03-26T06:56:25.356Z,81.02
2023-03-26T06:58:52.409Z,81.75
2023-03-26T07:01:19.228Z,79.75
2023-03-26T07:03:46.384Z,81.82
2023-03-26T07:06:13.631Z,79.64
2023-03-26T07:08:40.779Z,79.46
2023-03-26T07:11:07.543Z,79.21
2023-03-26T07:13:34.274Z,79.96
2023-03-26T07:16:01.090Z,81.63
2023-03-26T07:18:28.221Z,81.52
2023-03-26T07:20:55.434Z,81.94
2023-03-26T07:23:23.301Z,81.71
2023-03-26T07:25:50.324Z,82.24
2023-03-26T07:28:34.851Z,81.70
2023-03-26T07:31:23.265Z,81.70
2023-03-26T07:34:00.928Z,81.58
2023-03-26T07:36:36.521Z,81.26
2023-03-26T07:39:38.549Z,81.55
2023-03-26T07:42:24.117Z,81.56
2023-03-26T07:45:02.797Z,81.51
2023-03-26T07:47:33.808Z,80.30
2023-03-26T07:50:00.867Z,79.19
2023-03-26T07:52:27.908Z,80.35
2023-03-26T07:54:55.304Z,79.97
2023-03-26T07:57:32.184Z,80.58
2023-03-26T08:00:16.651Z,81.00
2023-03-26T08:03:07.657Z,79.97
2023-03-26T08:06:03.501Z,80.29
2023-03-26T08:09:12.445Z,81.00
2023-03-26T08:11:53.697Z,81.15
2023-03-26T08:15:10.382Z,80.99
2023-03-26T08:18:01.928Z,80.21
2023-03-26T08:20:40.962Z,79.74
2023-03-26T08:23:33.164Z,78.85
2023-03-26T08:26:46.055Z,78.32
2023-03-26T08:29:53.836Z,76.13
2023-03-26T08:32:41.892Z,78.14
2023-03-26T08:35:28.629Z,77.68
2023-03-26T08:38:08.697Z,78.44
2023-03-26T08:41:11.402Z,77.52
2023-03-26T08:44:26.276Z,76.37
2023-03-26T08:48:01.917Z,76.61
2023-03-26T08:51:21.079Z,79.18
2023-03-26T08:53:59.683Z,78.79
2023-03-26T08:57:01.592Z,79.24
2023-03-26T08:59:49.082Z,79.65
2023-03-26T09:03:04.264Z,79.34
2023-03-26T09:05:51.175Z,79.96
2023-03-26T09:08:54.300Z,81.67
2023-03-26T09:11:36.729Z,81.25
2023-03-26T09:14:40.609Z,82.52
2023-03-26T09:17:29.511Z,82.95
2023-03-26T09:20:28.138Z,81.86
2023-03-26T09:23:29.503Z,80.90
2023-03-26T09:26:27.181Z,81.58
2023-03-26T09:29:12.347Z,82.64
2023-03-26T09:32:17.644Z,83.25
2023-03-26T09:35:39.469Z,82.56
2023-03-26T09:38:21.330Z,82.79
2023-03-26T09:41:01.796Z,83.54
2023-03-26T09:43:56.181Z,83.54
2023-03-26T09:46:41.440Z,84.04
2023-03-26T09:49:27.874Z,84.26
2023-03-26T09:52:16.909Z,83.99
2023-03-26T09:55:00.379Z,83.93
2023-03-26T09:58:04.220Z,83.84
2023-03-26T10:01:09.265Z,84.89
2023-03-26T10:03:59.947Z,83.87
2023-03-26T10:06:45.820Z,83.67
2023-03-26T10:09:39.798Z,83.12
2023-03-26T10:12:28.156Z,83.25
2023-03-26T10:15:40.788Z,81.69
2023-03-26T10:18:27.938Z,81.82
2023-03-26T10:21:47.455Z,83.48
2023-03-26T10:32:46.011Z,80.33
2023-03-26T10:35:39.641Z,79.93
2023-03-26T10:38:47.257Z,79.64
2023-03-26T10:41:17.453Z,80.48
2023-03-26T10:44:09.086Z,80.07
2023-03-26T10:47:06.751Z,78.52
2023-03-26T10:50:04.249Z,78.47
2023-03-26T10:52:38.391Z,78.26
2023-03-26T10:55:16.478Z,77.07
2023-03-26T10:58:08.352Z,79.40
2023-03-26T11:00:41.284Z,77.53
2023-03-26T11:04:01.360Z,77.40
2023-03-26T11:06:41.338Z,76.07
2023-03-26T11:09:25.571Z,75.59
2023-03-26T11:12:31.524Z,75.27
2023-03-26T11:15:13.362Z,75.77
2023-03-26T11:18:01.210Z,76.00
2023-03-26T11:20:49.591Z,76.04
2023-03-26T11:23:35.514Z,75.95
2023-03-26T11:26:08.974Z,77.54
2023-03-26T11:29:03.730Z,76.90
2023-03-26T11:32:12.819Z,77.63
2023-03-26T11:34:44.308Z,77.90
2023-03-26T11:37:20.278Z,79.29
2023-03-26T11:39:51.097Z,81.49
2023-03-26T11:42:19.917Z,80.56
2023-03-26T11:44:57.484Z,80.11
2023-03-26T11:47:43.920Z,77.71
2023-03-26T11:50:15.675Z,77.62
2023-03-26T11:52:47.949Z,78.15
2023-03-26T11:55:16.085Z,79.10
2023-03-26T11:57:46.473Z,79.75
2023-03-26T12:00:18.573Z,79.11
2023-03-26T12:02:46.108Z,81.38
2023-03-26T12:05:30.801Z,82.19
2023-03-26T12:07:59.667Z,80.13
2023-03-26T12:10:37.078Z,81.55
2023-03-26T12:13:25.439Z,82.44
2023-03-26T12:15:52.243Z,84.18
2023-03-26T12:18:23.763Z,83.25
2023-03-26T12:21:01.821Z,82.41
2023-03-26T12:23:58.497Z,83.07
2023-03-26T12:26:41.818Z,81.54
2023-03-26T12:29:13.319Z,81.70
2023-03-26T12:32:13.356Z,80.98
2023-03-26T12:34:40.157Z,81.09
2023-03-26T12:37:07.861Z,80.41
2023-03-26T12:40:09.107Z,79.78
2023-03-26T12:44:48.980Z,78.14
2023-03-26T12:45:23.459Z,76.28
2023-03-26T12:47:57.631Z,77.61
2023-03-26T12:50:59.698Z,77.78
2023-03-26T12:53:54.206Z,78.31
2023-03-26T12:56:30.875Z,79.40
2023-03-26T12:59:02.141Z,81.15
2023-03-26T13:02:06.002Z,81.92
2023-03-26T13:05:07.010Z,83.91
2023-03-26T13:08:21.710Z,82.07
2023-03-26T13:11:12.824Z,81.81
2023-03-26T13:14:08.336Z,81.41
2023-03-26T13:16:45.627Z,81.94
2023-03-26T13:19:29.105Z,78.21
2023-03-26T13:22:07.767Z,79.66
2023-03-26T13:24:46.848Z,80.53
2023-03-26T13:27:30.476Z,79.53
2023-03-26T13:30:21.262Z,75.60
2023-03-26T13:33:25.177Z,76.63
2023-03-26T13:36:23.342Z,72.92
2023-03-26T13:39:48.388Z,74.40
2023-03-26T13:42:37.086Z,73.05
2023-03-26T13:45:49.101Z,73.88
2023-03-26T13:48:22.126Z,72.55
2023-03-26T13:51:04.434Z,73.09
2023-03-26T13:53:47.734Z,72.48
2023-03-26T13:56:16.180Z,72.13
2023-03-26T13:59:19.250Z,74.78
2023-03-26T14:01:59.560Z,75.14
2023-03-26T14:04:33.401Z,75.23
2023-03-26T14:07:27.449Z,73.99
2023-03-26T14:10:06.429Z,73.22
2023-03-26T14:12:46.967Z,73.47
2023-03-26T14:15:17.495Z,75.10
2023-03-26T14:17:53.780Z,74.02
2023-03-26T14:20:46.324Z,71.71
2023-03-26T14:23:39.178Z,72.55
2023-03-26T14:26:23.098Z,72.11
2023-03-26T14:29:17.456Z,73.89
2023-03-26T14:32:14.964Z,75.35
2023-03-26T14:35:09.839Z,73.65
2023-03-26T14:37:58.377Z,73.28
2023-03-26T14:40:29.733Z,73.13
2023-03-26T14:43:30.810Z,71.35
2023-03-26T14:46:16.887Z,70.88
2023-03-26T14:48:58.334Z,73.02
2023-03-26T14:51:55.789Z,71.00
2023-03-26T14:54:24.509Z,68.33
2023-03-26T14:57:29.176Z,68.25
2023-03-26T15:00:29.707Z,68.93
2023-03-26T15:03:31.556Z,67.30
2023-03-26T15:06:27.486Z,67.71
2023-03-26T15:09:03.353Z,65.06
2023-03-26T15:11:35.465Z,67.25
2023-03-26T15:14:20.711Z,66.18
2023-03-26T15:17:38.725Z,65.52
2023-03-26T15:20:50.115Z,66.00
2023-03-26T15:23:38.708Z,68.21
2023-03-26T15:26:27.804Z,67.26
2023-03-26T15:29:12.865Z,65.53
2023-03-26T15:31:48.639Z,68.33
2023-03-26T15:34:42.899Z,67.03
2023-03-26T15:37:34.410Z,67.29
2023-03-26T15:40:40.195Z,67.05
2023-03-26T15:43:16.916Z,66.00
2023-03-26T15:46:11.787Z,67.68
2023-03-26T15:48:51.685Z,69.13
2023-03-26T15:51:47.117Z,67.49
2023-03-26T15:54:31.658Z,66.20
2023-03-26T15:57:17.355Z,64.10
2023-03-26T15:59:58.922Z,62.04
2023-03-26T16:02:43.478Z,60.87
2023-03-26T16:05:19.738Z,62.44
2023-03-26T16:07:49.442Z,61.88
2023-03-26T16:10:33.957Z,62.23
2023-03-26T16:13:22.382Z,59.25
2023-03-26T16:15:56.523Z,58.19
2023-03-26T16:18:42.848Z,56.05
2023-03-26T16:21:31.994Z,58.43
2023-03-26T16:24:12.313Z,56.96
2023-03-26T16:26:51.139Z,58.20
2023-03-26T16:29:21.289Z,57.62
2023-03-26T16:32:25.472Z,58.61
2023-03-26T16:34:57.017Z,58.66
2023-03-26T16:37:39.972Z,57.09
2023-03-26T16:40:19.284Z,58.65
2023-03-26T16:43:04.830Z,59.74
2023-03-26T16:45:46.091Z,59.05
2023-03-26T16:48:36.284Z,55.33
2023-03-26T16:51:12.512Z,56.85
2023-03-26T16:54:17.524Z,57.79
2023-03-26T16:57:09.255Z,59.13
2023-03-26T17:00:12.828Z,57.70
2023-03-26T17:03:17.870Z,58.65
2023-03-26T17:06:02.433Z,58.79
2023-03-26T17:09:05.564Z,59.37
2023-03-26T17:11:54.802Z,62.22
2023-03-26T17:14:30.718Z,63.06
2023-03-26T17:17:26.884Z,63.92
2023-03-26T17:20:30.939Z,64.58
2023-03-26T17:23:09.307Z,63.74
2023-03-26T17:26:14.291Z,63.42
2023-03-26T17:29:17.616Z,63.06
2023-03-26T17:32:03.422Z,63.39
2023-03-26T17:34:42.843Z,63.25
2023-03-26T17:37:31.670Z,64.30
2023-03-26T17:40:10.218Z,63.90
2023-03-26T17:42:40.143Z,63.83
2023-03-26T17:45:21.908Z,64.55
2023-03-26T17:47:58.457Z,62.17
2023-03-26T17:50:53.183Z,62.31
2023-03-26T17:53:30.270Z,64.25
2023-03-26T17:56:16.556Z,62.81
2023-03-26T17:58:47.326Z,64.64
2023-03-26T18:01:36.220Z,62.08
2023-03-26T18:04:13.085Z,62.18
2023-03-26T18:06:58.723Z,64.95
2023-03-26T18:10:07.562Z,61.07
2023-03-26T18:12:38.462Z,61.07
2023-03-26T18:15:31.762Z,62.59
2023-03-26T18:18:11.205Z,61.60
2023-03-26T18:20:37.911Z,63.27
2023-03-26T18:23:28.677Z,62.89
2023-03-26T18:25:57.343Z,66.93
2023-03-26T18:28:35.400Z,71.19
2023-03-26T18:31:29.530Z,73.28
2023-03-26T18:34:02.558Z,75.90
2023-03-26T18:36:29.442Z,77.90
2023-03-26T18:39:01.915Z,78.78
2023-03-26T18:41:34.772Z,78.80
2023-03-26T18:44:02.508Z,77.64
2023-03-26T18:46:29.791Z,77.94
2023-03-26T18:48:56.851Z,78.09
2023-03-26T18:51:25.942Z,77.33
2023-03-26T18:53:55.416Z,78.43
2023-03-26T18:56:46.153Z,77.63
2023-03-26T18:59:23.830Z,77.83
2023-03-26T19:01:53.869Z,77.09
2023-03-26T19:04:25.182Z,77.69
2023-03-26T19:06:52.770Z,78.48
2023-03-26T19:09:31.006Z,80.48
2023-03-26T19:12:07.764Z,81.57
2023-03-26T19:14:50.473Z,78.46
2023-03-26T19:17:17.737Z,77.08
2023-03-26T19:19:46.638Z,74.65
2023-03-26T19:22:14.926Z,75.96
2023-03-26T19:24:41.665Z,77.93
2023-03-26T19:27:08.367Z,79.35
2023-03-26T19:29:35.205Z,82.15
2023-03-26T19:32:31.190Z,83.55
2023-03-26T19:35:17.921Z,84.78
2023-03-26T19:37:51.199Z,84.06
2023-03-26T19:40:23.794Z,85.24
2023-03-26T19:42:51.678Z,84.63
2023-03-26T19:45:19.678Z,85.00
2023-03-26T19:47:50.552Z,84.23
2023-03-26T19:51:00.941Z,85.64
2023-03-26T19:53:37.067Z,86.17
2023-03-26T19:56:14.798Z,86.49
2023-03-26T19:58:45.056Z,87.07
2023-03-26T20:01:17.478Z,87.17
2023-03-26T20:03:45.388Z,87.19
2023-03-26T20:06:12.942Z,86.99
2023-03-26T20:08:39.664Z,86.21
2023-03-26T20:11:12.272Z,86.19
2023-03-26T20:13:39.406Z,85.29
2023-03-26T20:16:26.618Z,87.33
2023-03-26T20:18:53.425Z,85.81
2023-03-26T20:21:20.764Z,86.61
2023-03-26T20:23:47.668Z,86.03
2023-03-26T20:26:15.806Z,86.68
2023-03-26T20:28:47.830Z,84.85
2023-03-26T20:31:20.414Z,80.70
2023-03-26T20:33:49.038Z,78.83
2023-03-26T20:36:33.705Z,77.41
2023-03-26T20:39:06.232Z,79.15
2023-03-26T20:41:33.684Z,83.31
2023-03-26T20:44:01.081Z,83.72
2023-03-26T20:46:30.948Z,84.50
2023-03-26T20:49:00.049Z,84.85
2023-03-26T20:51:27.320Z,82.69
2023-03-26T20:53:55.232Z,83.89
2023-03-26T20:56:24.720Z,81.14
2023-03-26T20:59:03.466Z,79.20
2023-03-26T21:01:35.281Z,78.86
2023-03-26T21:04:02.398Z,83.05
2023-03-26T21:06:29.194Z,83.68
2023-03-26T21:08:56.602Z,84.55
2023-03-26T21:11:29.163Z,84.46
2023-03-26T21:14:06.189Z,86.25
2023-03-26T21:16:33.182Z,86.16
2023-03-26T21:19:00.917Z,86.16
2023-03-26T21:21:46.683Z,86.43
2023-03-26T21:24:42.729Z,87.28
2023-03-26T21:27:15.469Z,87.72
2023-03-26T21:29:42.561Z,87.10
2023-03-26T21:32:11.156Z,87.30
2023-03-26T21:34:44.901Z,86.46
2023-03-26T21:37:16.196Z,86.05
2023-03-26T21:39:44.724Z,86.26
2023-03-26T21:42:13.375Z,85.79
2023-03-26T21:44:40.370Z,85.59
2023-03-26T21:47:09.770Z,86.12
2023-03-26T21:49:37.529Z,87.16
2023-03-26T21:52:05.183Z,85.16
2023-03-26T21:54:33.781Z,82.18
2023-03-26T21:57:26.811Z,83.47
2023-03-26T22:00:06.107Z,83.13
2023-03-26T22:02:51.874Z,84.77
2023-03-26T22:06:03.407Z,84.53
2023-03-26T22:08:38.471Z,84.13
2023-03-26T22:11:07.353Z,81.77
2023-03-26T22:13:34.026Z,81.45
2023-03-26T22:16:05.378Z,78.13
2023-03-26T22:18:33.654Z,77.09
2023-03-26T22:21:05.004Z,76.86
2023-03-26T22:23:31.966Z,74.06
2023-03-26T22:26:02.272Z,72.22
2023-03-26T22:28:30.948Z,79.92
2023-03-26T22:31:05.212Z,79.72
2023-03-26T22:33:32.277Z,79.10
2023-03-26T22:36:00.252Z,81.37
2023-03-26T22:38:28.347Z,82.24
2023-03-26T22:40:57.660Z,84.70
2023-03-26T22:43:27.773Z,84.31
2023-03-26T22:45:54.864Z,82.95
2023-03-26T22:48:22.611Z,80.73
2023-03-26T22:51:03.488Z,79.07
2023-03-26T22:53:31.058Z,79.67
2023-03-26T22:55:58.761Z,82.96
2023-03-26T22:58:25.828Z,84.52
2023-03-26T23:00:52.723Z,84.88
2023-03-26T23:03:20.813Z,83.96
2023-03-26T23:06:06.417Z,81.84
2023-03-26T23:08:33.594Z,80.93
2023-03-26T23:11:01.835Z,79.84
2023-03-26T23:13:28.637Z,78.72
2023-03-26T23:16:00.194Z,77.49
2023-03-26T23:18:28.384Z,76.34
2023-03-26T23:20:56.691Z,74.32
2023-03-26T23:23:30.477Z,74.32
2023-03-26T23:26:04.063Z,78.69
2023-03-26T23:28:32.801Z,79.62
2023-03-26T23:31:04.436Z,82.78
2023-03-26T23:33:32.953Z,80.55
2023-03-26T23:35:59.890Z,78.68
2023-03-26T23:38:27.786Z,78.80
2023-03-26T23:41:13.975Z,76.69
2023-03-26T23:43:40.764Z,76.30
2023-03-26T23:46:23.325Z,74.82
2023-03-26T23:48:51.156Z,74.21
2023-03-26T23:51:18.838Z,82.04
2023-03-26T23:53:45.984Z,81.36
2023-03-26T23:56:12.802Z,78.58
2023-03-26T23:58:39.953Z,81.04
